createdAt,value
2023-02-19T19:21:02.278Z,9.83
2023-02-19T19:22:02.218Z,9.91
2023-02-19T20:00:37.458Z,9.42
2023-02-19T20:01:37.470Z,9.59
2023-02-19T20:02:37.348Z,9.45
2023-02-19T20:03:37.240Z,9.41
2023-02-19T20:04:37.179Z,9.50
2023-02-19T20:05:37.109Z,9.47
2023-02-19T20:06:37.050Z,9.45
2023-02-19T20:07:36.991Z,9.45
2023-02-19T20:08:36.905Z,9.47
2023-02-19T20:09:36.859Z,9.50
2023-02-19T20:10:36.772Z,9.41
2023-02-19T20:11:36.715Z,9.44
2023-02-19T20:12:36.684Z,9.42
2023-02-19T20:13:36.584Z,9.36
2023-02-19T20:14:36.503Z,9.33
2023-02-19T20:15:36.464Z,9.42
2023-02-19T20:16:36.374Z,9.42
2023-02-19T20:17:36.307Z,9.44
2023-02-19T20:18:36.246Z,9.45
2023-02-19T20:19:36.182Z,9.40
2023-02-19T20:20:36.107Z,9.42
2023-02-19T20:21:36.040Z,9.41
2023-02-19T20:22:35.970Z,9.47
2023-02-19T20:23:35.906Z,9.40
2023-02-19T20:24:35.841Z,9.42
2023-02-19T20:25:35.778Z,9.54
2023-02-19T20:26:35.701Z,9.52
2023-02-19T20:27:35.637Z,9.41
2023-02-19T20:28:35.571Z,9.50
2023-02-19T20:29:35.506Z,9.44
2023-02-19T20:30:35.465Z,9.45
2023-02-19T20:31:35.513Z,9.55
2023-02-19T20:32:35.301Z,9.42
2023-02-19T20:33:35.243Z,9.41
2023-02-19T20:34:35.175Z,9.50
2023-02-19T20:35:35.111Z,9.45
2023-02-19T20:36:35.053Z,9.40
2023-02-19T20:37:34.978Z,9.42
2023-02-19T20:38:34.904Z,9.45
2023-02-19T20:39:34.835Z,9.48
2023-02-19T20:40:34.770Z,9.42
2023-02-19T20:41:34.705Z,9.52
2023-02-19T20:42:34.640Z,9.50
2023-02-19T20:43:34.571Z,9.47
2023-02-19T20:44:34.511Z,9.44
2023-02-19T20:45:34.440Z,9.41
2023-02-19T20:46:34.454Z,9.45
2023-02-19T20:47:34.349Z,9.52
2023-02-19T20:48:34.246Z,9.45
2023-02-19T20:49:34.178Z,9.37
2023-02-19T20:50:34.100Z,9.45
2023-02-19T20:51:34.042Z,9.45
2023-02-19T20:52:33.969Z,9.45
2023-02-19T20:53:33.904Z,9.48
2023-02-19T20:54:33.853Z,9.52
2023-02-19T20:55:33.773Z,9.44
2023-02-19T20:56:33.705Z,9.45
2023-02-19T20:57:33.640Z,9.44
2023-02-19T20:58:33.577Z,9.47
2023-02-19T20:59:33.504Z,9.45
2023-02-19T21:00:33.439Z,9.37
2023-02-19T21:01:33.434Z,9.40
2023-02-19T21:02:33.342Z,9.32
2023-02-19T21:03:33.234Z,9.36
2023-02-19T21:04:33.173Z,9.32
2023-02-19T21:05:33.108Z,9.30
2023-02-19T21:06:33.042Z,9.33
2023-02-19T21:07:32.966Z,9.32
2023-02-19T21:08:32.906Z,9.32
2023-02-19T21:09:32.838Z,9.32
2023-02-19T21:10:32.774Z,9.33
2023-02-19T21:11:32.705Z,9.32
2023-02-19T21:12:32.638Z,9.36
2023-02-19T21:13:32.570Z,9.37
2023-02-19T21:14:32.498Z,9.34
2023-02-19T21:15:32.433Z,9.36
2023-02-19T21:16:32.377Z,9.33
2023-02-19T21:17:32.308Z,9.33
2023-02-19T21:18:32.235Z,9.24
2023-02-19T21:19:32.173Z,9.33
2023-02-19T21:20:32.109Z,9.32
2023-02-19T21:21:32.044Z,9.40
2023-02-19T21:22:31.974Z,9.32
2023-02-19T21:23:31.907Z,9.33
2023-02-19T21:24:31.833Z,9.33
2023-02-19T21:25:31.778Z,9.34
2023-02-19T21:26:31.704Z,9.34
2023-02-19T21:27:31.636Z,9.34
2023-02-19T21:28:31.564Z,9.37
2023-02-19T21:29:31.513Z,9.29
2023-02-19T21:30:31.491Z,9.40
2023-02-19T21:31:31.457Z,9.34
2023-02-19T21:32:31.336Z,9.40
2023-02-19T21:33:31.245Z,9.40
2023-02-19T21:34:31.166Z,9.42
2023-02-19T21:35:31.105Z,9.42
2023-02-19T21:36:31.039Z,9.33
2023-02-19T21:37:30.976Z,9.32
2023-02-19T21:38:32.670Z,9.34
2023-02-19T21:39:30.835Z,9.37
2023-02-19T21:40:30.766Z,9.34
2023-02-19T21:41:30.704Z,9.37
2023-02-19T21:42:30.631Z,9.33
2023-02-19T21:43:30.568Z,9.37
2023-02-19T21:44:30.503Z,9.36
2023-02-19T21:45:30.464Z,9.41
2023-02-19T21:46:30.369Z,9.34
2023-02-19T21:47:30.303Z,9.45
2023-02-19T21:48:30.242Z,9.40
2023-02-19T21:49:30.171Z,9.37
2023-02-19T21:50:30.097Z,9.52
2023-02-19T21:51:30.055Z,9.37
2023-02-19T21:52:29.967Z,9.41
2023-02-19T21:53:29.901Z,9.29
2023-02-19T21:54:29.847Z,9.29
2023-02-19T21:55:29.768Z,9.30
2023-02-19T21:56:29.703Z,9.24
2023-02-19T21:57:29.638Z,9.24
2023-02-19T21:58:29.567Z,9.30
2023-02-19T21:59:29.494Z,9.32
2023-02-19T22:00:29.428Z,9.26
2023-02-19T22:01:29.364Z,9.22
2023-02-19T22:02:29.308Z,9.30
2023-02-19T22:03:29.235Z,9.29
2023-02-19T22:04:29.162Z,9.30
2023-02-19T22:05:29.099Z,9.27
2023-02-19T22:06:29.284Z,9.15
2023-02-19T22:07:28.961Z,9.33
2023-02-19T22:08:28.894Z,9.30
2023-02-19T22:09:28.826Z,9.30
2023-02-19T22:10:28.769Z,9.24
2023-02-19T22:11:28.694Z,9.27
2023-02-19T22:12:28.640Z,9.30
2023-02-19T22:13:28.560Z,9.29
2023-02-19T22:14:28.491Z,9.24
2023-02-19T22:15:28.427Z,9.22
2023-02-19T22:16:28.418Z,9.22
2023-02-19T22:17:28.295Z,9.16
2023-02-19T22:18:28.224Z,9.14
2023-02-19T22:19:28.155Z,9.19
2023-02-19T22:20:28.099Z,9.19
2023-02-19T22:21:28.029Z,9.26
2023-02-19T22:22:27.960Z,9.33
2023-02-19T22:23:27.896Z,9.32
2023-02-19T22:24:27.827Z,9.30
2023-02-19T22:25:27.761Z,9.32
2023-02-19T22:26:27.709Z,9.36
2023-02-19T22:27:27.630Z,9.32
2023-02-19T22:28:27.558Z,9.26
2023-02-19T22:29:27.494Z,9.37
2023-02-19T22:30:27.567Z,9.30
2023-02-19T22:31:27.513Z,9.26
2023-02-19T22:32:27.451Z,9.29
2023-02-19T22:33:27.219Z,9.29
2023-02-19T22:34:27.161Z,9.30
2023-02-19T22:35:27.093Z,9.27
2023-02-19T22:36:27.026Z,9.27
2023-02-19T22:37:26.956Z,9.29
2023-02-19T22:38:26.889Z,9.30
2023-02-19T22:39:26.833Z,9.27
2023-02-19T22:40:26.752Z,9.23
2023-02-19T22:41:26.687Z,9.26
2023-02-19T22:42:26.621Z,9.14
2023-02-19T22:43:26.551Z,9.26
2023-02-19T22:44:26.500Z,9.22
2023-02-19T22:45:26.426Z,9.14
2023-02-19T22:46:26.358Z,9.18
2023-02-19T22:47:26.287Z,9.18
2023-02-19T22:48:30.191Z,9.18
2023-02-19T22:49:26.157Z,9.14
2023-02-19T22:50:26.087Z,9.18
2023-02-19T22:51:26.028Z,9.19
2023-02-19T22:52:25.961Z,9.19
2023-02-19T22:53:25.890Z,9.19
2023-02-19T22:54:25.818Z,9.12
2023-02-19T22:55:25.754Z,9.11
2023-02-19T22:56:25.689Z,9.09
2023-02-19T22:57:25.619Z,9.06
2023-02-19T22:58:25.554Z,9.12
2023-02-19T22:59:25.490Z,9.15
2023-02-19T23:00:25.424Z,9.16
2023-02-19T23:01:25.423Z,9.24
2023-02-19T23:02:25.294Z,9.19
2023-02-19T23:03:25.224Z,9.23
2023-02-19T23:04:25.189Z,9.14
2023-02-19T23:05:25.088Z,9.09
2023-02-19T23:06:25.042Z,9.19
2023-02-19T23:07:24.954Z,9.15
2023-02-19T23:08:24.887Z,9.15
2023-02-19T23:09:24.826Z,9.19
2023-02-19T23:10:24.760Z,9.22
2023-02-19T23:11:24.695Z,9.15
2023-02-19T23:12:24.621Z,9.23
2023-02-19T23:13:24.554Z,9.24
2023-02-19T23:14:24.487Z,9.18
2023-02-19T23:15:24.430Z,9.14
2023-02-19T23:16:24.471Z,9.27
2023-02-19T23:17:24.293Z,9.16
2023-02-19T23:18:24.228Z,9.16
2023-02-19T23:19:24.156Z,9.18
2023-02-19T23:20:24.092Z,9.16
2023-02-19T23:21:24.024Z,9.18
2023-02-19T23:22:23.957Z,9.15
2023-02-19T23:23:23.940Z,9.15
2023-02-19T23:24:23.818Z,9.27
2023-02-19T23:25:23.762Z,9.18
2023-02-19T23:26:23.684Z,9.16
2023-02-19T23:27:23.627Z,9.22
2023-02-19T23:28:23.565Z,9.27
2023-02-19T23:29:25.074Z,9.15
2023-02-19T23:30:23.540Z,9.30
2023-02-19T23:31:23.423Z,9.30
2023-02-19T23:32:23.293Z,9.23
2023-02-19T23:33:23.224Z,9.26
2023-02-19T23:34:23.156Z,9.29
2023-02-19T23:35:23.099Z,9.29
2023-02-19T23:36:23.016Z,9.32
2023-02-19T23:37:22.953Z,9.24
2023-02-19T23:38:22.894Z,9.33
2023-02-19T23:39:22.823Z,9.30
2023-02-19T23:40:22.755Z,9.24
2023-02-19T23:41:22.688Z,9.27
2023-02-19T23:42:22.624Z,9.22
2023-02-19T23:43:22.554Z,9.16
2023-02-19T23:44:22.485Z,9.15
2023-02-19T23:45:22.416Z,9.26
2023-02-19T23:46:22.382Z,9.30
2023-02-19T23:47:22.281Z,9.30
2023-02-19T23:48:22.211Z,9.27
2023-02-19T23:49:22.151Z,9.15
2023-02-19T23:50:22.079Z,9.12
2023-02-19T23:51:22.014Z,9.14
2023-02-19T23:52:21.949Z,9.18
2023-02-19T23:53:21.877Z,9.16
2023-02-19T23:54:21.817Z,9.18
2023-02-19T23:55:21.742Z,9.14
2023-02-19T23:56:21.674Z,9.19
2023-02-19T23:57:21.611Z,9.12
2023-02-19T23:58:21.545Z,9.14
2023-02-19T23:59:21.480Z,9.09
